Time;durP1;ratioP1;P1;durP2;ratioP2;P2;SDS_P1;SDS_P2;PMS_P1;PMS_P2;Temp;Humidity;BMP_temperature;BMP_pressure;BME280_temperature;BME280_humidity;BME280_pressure;Samples;Min_cycle;Max_cycle;Signal;HPM_P1;HPM_P2
2022/01/25 00:26:21;;;;;;;5.78;3.90;;;15.50;77.80;;;;;;1981784;29;20163;-77
2022/01/25 00:28:43;;;;;;;6.80;4.40;;;15.50;77.90;;;;;;1981571;29;20172;-76
2022/01/25 00:31:09;;;;;;;7.18;4.47;;;15.50;77.90;;;;;;1981605;29;20183;-76
2022/01/25 00:32:08;;;;;;;7.13;4.10;;;15.50;77.80;;;;;;1981571;29;20254;-76
2022/01/25 00:33:07;;;;;;;5.67;3.60;;;15.50;77.80;;;;;;1981474;29;20732;-76
2022/01/25 00:34:06;;;;;;;5.70;4.40;;;15.50;77.80;;;;;;1981579;29;20598;-78
2022/01/25 00:35:05;;;;;;;7.00;5.00;;;15.50;77.80;;;;;;1981473;29;20210;-76
2022/01/25 00:36:06;;;;;;;5.43;3.80;;;15.50;77.70;;;;;;1981571;29;20335;-75
2022/01/25 00:37:05;;;;;;;7.00;4.80;;;15.50;77.60;;;;;;1973274;29;20427;-76
2022/01/25 00:38:04;;;;;;;5.77;4.30;;;15.50;77.80;;;;;;1973412;29;20218;-76
2022/01/25 00:39:04;;;;;;;7.10;4.50;;;15.50;77.70;;;;;;1981045;29;20214;-75
2022/01/25 00:40:04;;;;;;;6.88;4.85;;;15.50;77.70;;;;;;1981548;29;20633;-76
2022/01/25 00:41:03;;;;;;;6.80;4.20;;;15.50;77.80;;;;;;1981421;29;20660;-76
2022/01/25 00:42:01;;;;;;;6.73;4.30;;;15.50;77.60;;;;;;1981366;29;20198;-76
2022/01/25 00:43:00;;;;;;;7.50;4.50;;;15.50;77.80;;;;;;1981507;29;20229;-76
2022/01/25 00:44:00;;;;;;;7.53;4.63;;;15.50;77.70;;;;;;1981427;29;20686;-76
2022/01/25 00:44:59;;;;;;;8.52;4.70;;;15.50;77.70;;;;;;1981405;29;20178;-76
2022/01/25 00:46:02;;;;;;;7.23;4.37;;;15.50;77.60;;;;;;1981440;29;20181;-76
2022/01/25 00:47:01;;;;;;;6.13;4.25;;;15.50;77.70;;;;;;1981387;29;20167;-76
2022/01/25 00:48:02;;;;;;;6.00;4.20;;;15.50;77.70;;;;;;1981495;29;20638;-76
2022/01/25 00:49:03;;;;;;;8.10;4.82;;;15.50;77.60;;;;;;1973144;29;20271;-76
2022/01/25 00:50:02;;;;;;;6.15;3.65;;;15.50;77.70;;;;;;1965523;29;20194;-76
2022/01/25 00:51:19;;;;;;;8.60;5.30;;;15.50;77.70;;;;;;1972985;29;20182;-75
2022/01/25 00:52:22;;;;;;;6.03;4.40;;;15.50;77.70;;;;;;1981524;29;20403;-76
2022/01/25 00:54:41;;;;;;;8.30;4.90;;;15.50;77.60;;;;;;1981445;29;20531;-76
2022/01/25 00:55:39;;;;;;;7.88;4.75;;;15.50;77.70;;;;;;1981388;29;20164;-76
2022/01/25 00:56:41;;;;;;;7.93;5.27;;;15.50;77.70;;;;;;1973129;29;20190;-76
2022/01/25 00:57:39;;;;;;;6.90;4.85;;;15.50;77.80;;;;;;1973097;29;20167;-76
2022/01/25 00:58:38;;;;;;;7.30;4.57;;;15.50;77.80;;;;;;1981190;29;20654;-76
2022/01/25 00:59:37;;;;;;;6.33;4.33;;;15.50;77.60;;;;;;1981308;29;20262;-76
2022/01/25 01:00:35;;;;;;;6.70;4.10;;;15.50;77.60;;;;;;1981204;28;20646;-76
2022/01/25 01:01:35;;;;;;;7.33;4.60;;;15.50;77.60;;;;;;1981189;29;20293;-76
2022/01/25 01:02:34;;;;;;;6.38;4.70;;;15.50;77.60;;;;;;1981482;29;20571;-76
2022/01/25 01:03:33;;;;;;;6.85;4.88;;;15.50;77.70;;;;;;1981080;29;20282;-76
2022/01/25 01:04:33;;;;;;;8.67;5.00;;;15.50;77.70;;;;;;1981310;29;20634;-75
2022/01/25 01:05:31;;;;;;;5.80;4.40;;;15.50;77.80;;;;;;1981419;29;20593;-76
2022/01/25 01:06:30;;;;;;;5.63;4.07;;;15.50;77.70;;;;;;1981229;29;20198;-76
2022/01/25 01:07:29;;;;;;;8.00;4.83;;;15.50;77.60;;;;;;1981308;29;20175;-76
2022/01/25 01:08:27;;;;;;;8.17;4.40;;;15.50;77.60;;;;;;1981234;29;20186;-76
2022/01/25 01:09:26;;;;;;;5.30;4.10;;;15.50;77.60;;;;;;1981483;29;20186;-76
2022/01/25 01:10:26;;;;;;;13.97;5.73;;;15.50;77.70;;;;;;1981260;29;20616;-77
2022/01/25 01:11:35;;;;;;;8.32;4.35;;;15.50;77.60;;;;;;1981156;29;20175;-76
2022/01/25 01:13:16;;;;;;;6.82;4.70;;;15.50;77.80;;;;;;1981147;29;20174;-77
2022/01/25 01:15:24;;;;;;;6.97;4.32;;;15.40;77.60;;;;;;1981175;29;20170;-76
2022/01/25 01:29:26;;;;;;;10.05;5.50;;;15.50;77.70;;;;;;1981309;29;20512;-76
2022/01/25 01:42:18;;;;;;;9.43;5.90;;;15.40;77.60;;;;;;1981350;29;20245;-76
2022/01/25 01:43:38;;;;;;;7.05;5.00;;;15.50;77.70;;;;;;1981032;29;20230;-76
2022/01/25 01:44:51;;;;;;;9.02;5.47;;;15.40;77.70;;;;;;1980526;29;20278;-76
2022/01/25 01:46:00;;;;;;;10.07;5.10;;;15.40;77.70;;;;;;1981249;29;20158;-76
2022/01/25 01:47:06;;;;;;;7.15;4.68;;;15.40;77.70;;;;;;1981115;29;20159;-76
2022/01/25 01:48:39;;;;;;;7.63;5.25;;;15.40;77.60;;;;;;1965091;29;20192;-76
2022/01/25 01:49:43;;;;;;;10.40;5.65;;;15.40;77.50;;;;;;1964787;29;20305;-76
2022/01/25 01:50:41;;;;;;;7.25;5.07;;;15.40;77.50;;;;;;1964895;29;20177;-76
2022/01/25 01:51:43;;;;;;;8.57;5.40;;;15.40;77.70;;;;;;1965120;29;20191;-75
2022/01/25 01:52:42;;;;;;;8.27;5.35;;;15.40;77.50;;;;;;1964888;29;20671;-76
2022/01/25 01:53:41;;;;;;;9.00;5.47;;;15.40;77.50;;;;;;1965049;29;20255;-75
2022/01/25 01:54:40;;;;;;;10.30;5.90;;;15.40;77.60;;;;;;1965008;29;20184;-75
2022/01/25 01:55:38;;;;;;;11.00;4.83;;;15.40;77.40;;;;;;1964991;29;20182;-76
2022/01/25 01:56:39;;;;;;;7.70;5.43;;;15.40;77.50;;;;;;1964969;29;20184;-77
2022/01/25 01:57:38;;;;;;;10.30;6.50;;;15.40;77.50;;;;;;1964984;29;20704;-76
2022/01/25 01:58:38;;;;;;;12.23;5.73;;;15.40;77.60;;;;;;1965071;29;20196;-76
2022/01/25 01:59:37;;;;;;;8.07;5.28;;;15.40;77.50;;;;;;1964966;29;20211;-76
2022/01/25 02:00:41;;;;;;;7.53;5.00;;;15.40;77.60;;;;;;1964931;29;20188;-76
2022/01/25 02:01:42;;;;;;;7.75;5.47;;;15.40;77.70;;;;;;1964749;29;20196;-75
2022/01/25 02:02:40;;;;;;;9.25;6.00;;;15.40;77.60;;;;;;1964965;29;20674;-76
2022/01/25 02:03:39;;;;;;;8.80;6.00;;;15.40;77.60;;;;;;1965172;29;20281;-76
2022/01/25 02:04:37;;;;;;;11.73;6.40;;;15.40;77.70;;;;;;1965139;29;20196;-77
2022/01/25 02:05:36;;;;;;;8.00;5.43;;;15.40;77.70;;;;;;1965119;29;20180;-76
2022/01/25 02:06:36;;;;;;;9.80;6.20;;;15.40;77.70;;;;;;1965075;29;20237;-76
2022/01/25 02:07:34;;;;;;;8.82;6.53;;;15.40;77.70;;;;;;1957372;29;20732;-75
2022/01/25 02:08:34;;;;;;;8.37;5.20;;;15.40;77.60;;;;;;1957664;29;20272;-76
2022/01/25 02:09:32;;;;;;;8.23;5.65;;;15.40;77.70;;;;;;1964593;29;20304;-76
2022/01/25 02:10:32;;;;;;;9.20;5.90;;;15.40;77.70;;;;;;1964922;29;20176;-76
2022/01/25 02:11:31;;;;;;;7.50;5.55;;;15.40;77.60;;;;;;1964961;29;20267;-76
2022/01/25 02:12:29;;;;;;;10.03;6.07;;;15.40;77.50;;;;;;1965095;29;20687;-75
2022/01/25 02:13:28;;;;;;;7.33;5.13;;;15.40;77.50;;;;;;1966455;29;20211;-77
2022/01/25 02:14:28;;;;;;;7.53;5.27;;;15.40;77.50;;;;;;1966479;29;20252;-75
2022/01/25 02:15:27;;;;;;;10.25;6.00;;;15.40;77.50;;;;;;1966608;29;20180;-76
2022/01/25 02:17:54;;;;;;;13.30;7.07;;;15.40;77.60;;;;;;1967013;29;20520;-76
2022/01/25 02:22:46;;;;;;;9.07;5.75;;;15.40;77.70;;;;;;1982997;29;20160;-77
2022/01/25 02:23:45;;;;;;;10.80;6.40;;;15.40;77.70;;;;;;1983314;29;20160;-77
2022/01/25 02:24:44;;;;;;;11.55;5.70;;;15.40;77.70;;;;;;1983001;29;20425;-76
2022/01/25 02:25:43;;;;;;;11.07;5.68;;;15.40;77.70;;;;;;1982878;29;20581;-76
2022/01/25 02:26:41;;;;;;;9.23;6.33;;;15.40;77.80;;;;;;1974721;29;20180;-77
2022/01/25 02:27:40;;;;;;;8.53;6.07;;;15.40;77.70;;;;;;1974911;29;20172;-77
2022/01/25 02:28:41;;;;;;;8.00;5.43;;;15.40;77.80;;;;;;1982625;29;20230;-75
2022/01/25 02:29:40;;;;;;;9.30;5.45;;;15.40;77.70;;;;;;1983389;29;20190;-75
2022/01/25 02:30:40;;;;;;;11.40;6.70;;;15.40;77.70;;;;;;1983891;29;20191;-75
2022/01/25 02:31:38;;;;;;;8.60;5.47;;;15.40;77.70;;;;;;1983538;29;20414;-75
2022/01/25 02:32:37;;;;;;;8.47;5.60;;;15.40;77.80;;;;;;1983389;29;20179;-75
2022/01/25 02:33:36;;;;;;;8.40;5.53;;;15.40;77.90;;;;;;1983126;29;20227;-75
2022/01/25 02:34:35;;;;;;;9.20;5.53;;;15.40;77.80;;;;;;1983798;29;20849;-76
2022/01/25 02:35:34;;;;;;;7.97;6.00;;;15.40;77.90;;;;;;1983778;29;20183;-75
2022/01/25 02:36:33;;;;;;;8.83;5.97;;;15.40;78.00;;;;;;1983767;29;20175;-75
2022/01/25 02:37:31;;;;;;;11.17;6.53;;;15.40;77.90;;;;;;1983476;29;20893;-75
2022/01/25 02:38:32;;;;;;;10.33;6.13;;;15.40;77.80;;;;;;1983943;29;20201;-75
2022/01/25 02:39:31;;;;;;;9.73;6.32;;;15.40;77.90;;;;;;1984109;29;20642;-75
2022/01/25 02:40:30;;;;;;;9.38;6.30;;;15.40;77.80;;;;;;1983807;29;20262;-75
2022/01/25 02:41:29;;;;;;;12.33;6.50;;;15.40;77.90;;;;;;1984063;29;20331;-75
2022/01/25 02:42:27;;;;;;;9.43;5.87;;;15.40;78.00;;;;;;1984194;29;20174;-74
2022/01/25 02:43:28;;;;;;;8.37;6.27;;;15.40;77.80;;;;;;1984089;29;20191;-75
2022/01/25 02:44:28;;;;;;;9.23;6.10;;;15.40;78.00;;;;;;1984214;29;20171;-75
2022/01/25 02:45:37;;;;;;;11.95;6.50;;;15.40;77.90;;;;;;1984274;29;20168;-74
2022/01/25 02:49:07;;;;;;;8.25;6.25;;;15.40;78.00;;;;;;1984322;29;20151;-75
2022/01/25 02:50:06;;;;;;;9.40;6.35;;;15.40;77.70;;;;;;1984666;29;20183;-75
2022/01/25 02:51:05;;;;;;;7.97;5.77;;;15.40;77.90;;;;;;1984515;29;20175;-75
2022/01/25 02:52:05;;;;;;;15.03;7.57;;;15.40;78.00;;;;;;1984930;29;20426;-75
2022/01/25 02:53:03;;;;;;;11.02;7.22;;;15.30;77.80;;;;;;1984735;29;20198;-76
2022/01/25 02:54:03;;;;;;;8.90;6.00;;;15.40;78.00;;;;;;1984853;29;20655;-75
2022/01/25 02:55:03;;;;;;;12.00;7.22;;;15.40;78.00;;;;;;1984788;29;20509;-75
2022/01/25 02:56:01;;;;;;;8.25;5.70;;;15.30;77.90;;;;;;1984831;29;20171;-76
2022/01/25 02:57:00;;;;;;;10.43;6.40;;;15.40;78.00;;;;;;1984982;29;20190;-75
2022/01/25 02:57:58;;;;;;;10.23;7.37;;;15.40;78.00;;;;;;1985214;29;20163;-76
2022/01/25 02:58:57;;;;;;;11.50;6.60;;;15.40;77.90;;;;;;1985150;29;20182;-76
2022/01/25 03:00:01;;;;;;;10.53;6.70;;;15.40;77.80;;;;;;1984950;29;20202;-76
2022/01/25 03:00:59;;;;;;;12.35;7.72;;;15.30;77.70;;;;;;1984808;29;20401;-76
2022/01/25 03:01:58;;;;;;;9.30;6.30;;;15.30;77.70;;;;;;1985993;29;20187;-76
2022/01/25 03:02:57;;;;;;;10.37;7.20;;;15.40;78.00;;;;;;1986318;29;20308;-76
2022/01/25 03:03:56;;;;;;;9.00;6.60;;;15.30;77.90;;;;;;1986058;29;20168;-75
2022/01/25 03:04:54;;;;;;;9.20;5.78;;;15.40;78.00;;;;;;1986065;29;20171;-75
2022/01/25 03:05:53;;;;;;;9.37;6.17;;;15.40;78.00;;;;;;1986063;29;20183;-75
2022/01/25 03:06:52;;;;;;;9.80;6.27;;;15.40;77.90;;;;;;1986337;29;20208;-76
2022/01/25 03:07:50;;;;;;;10.80;6.53;;;15.40;77.70;;;;;;1986359;29;20191;-76
2022/01/25 03:08:50;;;;;;;12.63;6.87;;;15.40;77.80;;;;;;1986245;29;20669;-75
2022/01/25 03:09:52;;;;;;;10.80;6.82;;;15.40;77.90;;;;;;1986554;29;20178;-76
2022/01/25 03:10:51;;;;;;;8.93;6.13;;;15.40;77.90;;;;;;1986022;29;20192;-76
2022/01/25 03:11:52;;;;;;;9.53;6.43;;;15.40;77.90;;;;;;1986594;29;20167;-76
2022/01/25 03:12:55;;;;;;;11.50;7.35;;;15.40;77.90;;;;;;1986496;29;20147;-75
2022/01/25 03:13:55;;;;;;;9.00;6.05;;;15.40;77.80;;;;;;1985969;29;20168;-76
2022/01/25 03:16:19;;;;;;;11.70;6.85;;;15.40;78.00;;;;;;1986157;29;20155;-76
2022/01/25 03:17:25;;;;;;;11.32;7.35;;;15.40;78.60;;;;;;1985605;29;20575;-76
2022/01/25 03:20:50;;;;;;;10.90;6.90;;;15.40;78.00;;;;;;1986371;29;20251;-76
2022/01/25 03:21:49;;;;;;;12.95;8.23;;;15.40;78.00;;;;;;1986034;29;20226;-75
2022/01/25 03:23:54;;;;;;;12.23;6.57;;;15.30;77.90;;;;;;1985707;28;20160;-76
2022/01/25 03:24:52;;;;;;;10.25;6.40;;;15.40;77.90;;;;;;1985913;29;20603;-76
2022/01/25 03:25:52;;;;;;;14.07;7.97;;;15.40;77.90;;;;;;1978131;29;20190;-75
2022/01/25 03:26:50;;;;;;;11.15;7.03;;;15.40;78.60;;;;;;1978100;29;20160;-75
2022/01/25 03:27:49;;;;;;;11.30;6.63;;;15.40;77.90;;;;;;1985378;29;20180;-76
2022/01/25 03:28:48;;;;;;;11.30;6.93;;;15.30;77.90;;;;;;1985971;29;20186;-76
2022/01/25 03:29:46;;;;;;;10.15;6.43;;;15.40;77.90;;;;;;1985723;29;20198;-76
2022/01/25 03:30:47;;;;;;;11.90;6.70;;;15.30;77.80;;;;;;1985689;29;20195;-76
2022/01/25 03:31:45;;;;;;;9.15;6.32;;;15.30;77.70;;;;;;1985055;29;20563;-76
2022/01/25 03:32:44;;;;;;;10.00;6.53;;;15.30;78.50;;;;;;1985193;29;20206;-76
2022/01/25 03:33:43;;;;;;;12.10;7.20;;;15.40;77.90;;;;;;1985756;29;20222;-76
2022/01/25 03:34:42;;;;;;;11.05;7.05;;;15.40;77.90;;;;;;1977691;29;20176;-76
2022/01/25 03:35:41;;;;;;;9.40;6.00;;;15.40;77.90;;;;;;1969790;29;20199;-76
2022/01/25 03:36:40;;;;;;;11.80;7.35;;;15.40;77.80;;;;;;1977673;29;20182;-76
2022/01/25 03:37:39;;;;;;;10.20;7.00;;;15.40;77.80;;;;;;1985505;29;20171;-76
2022/01/25 03:38:39;;;;;;;9.87;7.00;;;15.40;77.80;;;;;;1977185;29;20641;-76
2022/01/25 03:39:38;;;;;;;12.88;8.50;;;15.40;78.50;;;;;;1977477;29;20183;-76
2022/01/25 03:40:37;;;;;;;10.10;7.23;;;15.40;77.90;;;;;;1984527;29;20183;-76
2022/01/25 03:41:36;;;;;;;11.77;6.93;;;15.40;77.90;;;;;;1985249;29;20206;-76
2022/01/25 03:42:37;;;;;;;9.65;6.93;;;15.30;77.80;;;;;;1985161;29;20175;-76
2022/01/25 03:43:37;;;;;;;13.80;8.50;;;15.30;77.80;;;;;;1984537;29;20658;-76
2022/01/25 03:44:35;;;;;;;11.68;7.55;;;15.40;78.00;;;;;;1984162;29;20175;-76
2022/01/25 03:45:36;;;;;;;9.63;6.33;;;15.40;77.90;;;;;;1976728;29;20175;-76
2022/01/25 03:46:53;;;;;;;8.85;6.05;;;15.30;77.80;;;;;;1984399;29;20200;-76
2022/01/25 03:49:47;;;;;;;9.88;7.03;;;15.40;77.80;;;;;;1985034;29;20230;-76
2022/01/25 03:50:34;;;;;;;12.25;7.55;;;15.30;77.80;;;;;;1985058;29;20160;-76
2022/01/25 03:51:32;;;;;;;16.53;6.60;;;15.30;77.90;;;;;;1984941;29;20611;-77
2022/01/25 03:52:34;;;;;;;11.77;7.97;;;15.30;78.00;;;;;;1985623;29;20414;-76
2022/01/25 03:53:33;;;;;;;9.35;6.57;;;15.30;78.00;;;;;;1984583;29;20661;-76
2022/01/25 03:54:32;;;;;;;9.50;6.70;;;15.40;77.90;;;;;;1984578;29;20589;-76
2022/01/25 03:55:30;;;;;;;11.87;7.23;;;15.30;77.80;;;;;;1985016;29;20198;-76
2022/01/25 03:56:29;;;;;;;11.67;7.47;;;15.40;78.00;;;;;;1985435;29;20237;-76
2022/01/25 03:57:28;;;;;;;13.00;7.50;;;15.30;77.80;;;;;;1984058;29;20238;-77
2022/01/25 03:58:26;;;;;;;18.10;7.23;;;15.30;77.80;;;;;;1984306;29;20171;-76
2022/01/25 03:59:25;;;;;;;12.13;7.40;;;15.40;77.90;;;;;;1984938;29;20179;-76
2022/01/25 04:00:24;;;;;;;11.20;6.97;;;15.30;77.80;;;;;;1984968;29;20179;-76
2022/01/25 04:01:22;;;;;;;13.77;8.50;;;15.30;77.80;;;;;;1984492;29;20207;-76
2022/01/25 04:02:21;;;;;;;12.57;7.70;;;15.30;78.00;;;;;;1984997;29;20180;-76
2022/01/25 04:03:33;;;;;;;11.65;7.40;;;15.30;78.00;;;;;;1984620;29;20599;-76
2022/01/25 04:04:33;;;;;;;11.65;7.00;;;15.30;77.80;;;;;;1984659;29;20207;-76
2022/01/25 04:06:44;;;;;;;11.25;7.93;;;15.30;77.90;;;;;;1984537;29;20668;-76
2022/01/25 04:07:48;;;;;;;15.38;8.23;;;15.30;78.00;;;;;;1984501;29;20172;-75
2022/01/25 04:08:47;;;;;;;10.27;6.10;;;15.20;77.70;;;;;;1976451;29;20168;-76
2022/01/25 04:09:45;;;;;;;12.13;7.27;;;15.20;77.90;;;;;;1976105;29;20168;-76
2022/01/25 04:10:44;;;;;;;12.80;7.57;;;15.30;77.90;;;;;;1983605;29;20179;-76
2022/01/25 04:11:43;;;;;;;13.83;8.10;;;15.30;77.80;;;;;;1984018;29;20240;-75
2022/01/25 04:12:41;;;;;;;11.10;7.60;;;15.30;77.90;;;;;;1984313;29;20198;-75
2022/01/25 04:13:40;;;;;;;15.53;7.70;;;15.30;77.90;;;;;;1984237;29;20207;-76
2022/01/25 04:14:38;;;;;;;12.53;7.50;;;15.30;78.60;;;;;;1983926;29;20178;-75
2022/01/25 04:15:46;;;;;;;11.60;7.70;;;15.30;78.00;;;;;;1981986;29;20183;-75
2022/01/25 04:16:55;;;;;;;10.70;7.00;;;15.20;77.80;;;;;;1981846;29;20690;-76
2022/01/25 04:18:21;;;;;;;11.40;7.43;;;15.20;77.80;;;;;;1973702;29;20260;-76
2022/01/25 04:19:30;;;;;;;10.85;7.05;;;15.30;77.90;;;;;;1976986;29;20339;-76
2022/01/25 04:20:34;;;;;;;11.75;7.38;;;15.20;77.80;;;;;;1981888;29;20159;-76
2022/01/25 04:25:14;;;;;;;9.75;7.22;;;15.20;77.60;;;;;;1982099;29;20155;-76
2022/01/25 04:26:12;;;;;;;11.63;7.78;;;15.20;77.90;;;;;;1982178;29;20627;-76
2022/01/25 04:27:12;;;;;;;11.67;7.60;;;15.20;77.80;;;;;;1982004;29;20216;-76
2022/01/25 04:28:11;;;;;;;12.25;8.05;;;15.20;77.80;;;;;;1981990;29;20206;-76
2022/01/25 04:29:10;;;;;;;10.30;7.30;;;15.20;77.90;;;;;;1981968;29;20543;-76
2022/01/25 04:30:09;;;;;;;10.50;7.70;;;15.30;78.00;;;;;;1981853;29;20179;-76
2022/01/25 04:31:08;;;;;;;11.63;7.80;;;15.30;77.90;;;;;;1981156;29;20183;-76
2022/01/25 04:32:07;;;;;;;12.30;8.40;;;15.30;77.80;;;;;;1981251;29;20511;-76
2022/01/25 04:33:17;;;;;;;11.80;7.25;;;15.30;77.90;;;;;;1981787;29;20219;-76
2022/01/25 04:49:13;;;;;;;11.32;7.68;;;15.20;77.80;;;;;;1978494;29;20159;-76
2022/01/25 04:50:22;;;;;;;14.95;8.35;;;15.20;77.80;;;;;;1981113;29;20182;-76
2022/01/25 04:51:47;;;;;;;14.95;8.38;;;15.20;77.70;;;;;;1981388;29;20156;-76
2022/01/25 04:52:58;;;;;;;13.48;8.35;;;15.20;77.70;;;;;;1981638;29;20522;-76
2022/01/25 04:56:30;;;;;;;16.65;9.27;;;15.20;77.70;;;;;;1981594;29;20585;-76
2022/01/25 04:58:42;;;;;;;11.75;7.75;;;15.30;77.50;;;;;;1973314;29;20239;-75
2022/01/25 05:00:05;;;;;;;11.45;8.07;;;15.20;77.60;;;;;;1981378;29;20498;-76
2022/01/25 05:01:03;;;;;;;14.80;9.30;;;15.30;77.60;;;;;;1981421;29;20534;-76
2022/01/25 05:02:11;;;;;;;13.33;8.07;;;15.20;77.50;;;;;;1981563;29;20171;-76
2022/01/25 05:03:14;;;;;;;12.52;8.30;;;15.20;77.40;;;;;;1981291;29;20271;-76
2022/01/25 05:04:20;;;;;;;12.07;7.18;;;15.20;77.30;;;;;;1981563;29;20168;-76
2022/01/25 05:05:34;;;;;;;12.85;7.47;;;15.20;77.60;;;;;;1973205;29;20176;-76
2022/01/25 05:06:33;;;;;;;15.25;8.95;;;15.20;77.60;;;;;;1975149;29;20650;-76
2022/01/25 05:07:58;;;;;;;11.70;7.13;;;15.20;77.40;;;;;;1973184;29;20176;-76
2022/01/25 05:09:06;;;;;;;11.73;7.60;;;15.20;77.50;;;;;;1976029;29;20279;-77
2022/01/25 05:10:07;;;;;;;13.15;8.38;;;15.20;77.30;;;;;;1980867;29;20152;-75
2022/01/25 05:11:15;;;;;;;11.63;6.90;;;15.20;77.10;;;;;;1981524;29;20183;-75
2022/01/25 05:12:14;;;;;;;10.40;6.72;;;15.20;77.30;;;;;;1981439;29;20307;-75
2022/01/25 05:14:17;;;;;;;12.97;8.00;;;15.30;77.30;;;;;;1981371;29;20637;-75
2022/01/25 05:16:03;;;;;;;15.65;7.50;;;15.30;77.30;;;;;;1981877;29;20168;-75
2022/01/25 05:17:58;;;;;;;10.60;7.05;;;15.30;77.20;;;;;;1982544;29;20230;-75
2022/01/25 05:22:03;;;;;;;10.38;7.53;;;15.30;77.30;;;;;;1983386;29;20175;-75
2022/01/25 05:22:56;;;;;;;13.85;7.35;;;15.30;77.20;;;;;;1982542;29;20186;-76
2022/01/25 05:23:55;;;;;;;13.82;8.07;;;15.30;77.20;;;;;;1982373;29;20172;-75
2022/01/25 05:24:55;;;;;;;10.17;7.20;;;15.40;77.10;;;;;;1983482;29;20619;-75
2022/01/25 05:25:54;;;;;;;13.27;8.45;;;15.30;77.10;;;;;;1981751;29;20179;-75
2022/01/25 05:26:53;;;;;;;13.03;8.10;;;15.40;77.20;;;;;;1982656;29;20185;-75
2022/01/25 05:27:51;;;;;;;12.20;7.60;;;15.40;77.10;;;;;;1982164;29;20178;-75
2022/01/25 05:28:50;;;;;;;13.10;6.70;;;15.40;77.60;;;;;;1973726;29;20176;-75
2022/01/25 05:29:49;;;;;;;10.50;7.13;;;15.40;77.20;;;;;;1973491;29;20643;-75
2022/01/25 05:30:47;;;;;;;12.00;7.70;;;15.40;76.90;;;;;;1981621;29;20195;-75
2022/01/25 05:31:46;;;;;;;11.40;7.23;;;15.40;77.00;;;;;;1981928;29;20190;-75
2022/01/25 05:32:45;;;;;;;11.57;7.23;;;15.40;76.90;;;;;;1981662;29;20175;-75
2022/01/25 05:33:43;;;;;;;12.17;7.43;;;15.40;77.00;;;;;;1973273;29;20255;-76
2022/01/25 05:34:42;;;;;;;10.23;6.80;;;15.40;76.90;;;;;;1973800;29;20195;-75
2022/01/25 05:35:41;;;;;;;10.87;7.37;;;15.50;76.80;;;;;;1981531;29;20171;-77
2022/01/25 05:36:42;;;;;;;10.47;7.20;;;15.50;76.80;;;;;;1982022;29;20510;-76
2022/01/25 05:37:42;;;;;;;14.20;7.55;;;15.50;76.90;;;;;;1973530;29;20210;-76
2022/01/25 05:38:42;;;;;;;15.05;7.90;;;15.50;76.70;;;;;;1973675;29;20231;-76
2022/01/25 05:39:41;;;;;;;11.57;7.25;;;15.50;76.80;;;;;;1981881;29;20163;-75
2022/01/25 05:40:46;;;;;;;13.98;7.45;;;15.60;76.90;;;;;;1982143;29;20634;-77
2022/01/25 05:41:53;;;;;;;9.60;6.90;;;15.60;77.50;;;;;;1981732;29;20191;-77
2022/01/25 05:44:22;;;;;;;12.18;7.72;;;15.60;76.80;;;;;;1943235;29;20621;-76
2022/01/25 05:45:37;;;;;;;14.95;7.60;;;15.60;76.70;;;;;;1947116;29;20189;-76
2022/01/25 05:46:46;;;;;;;11.45;6.97;;;15.60;76.60;;;;;;1968848;29;20738;-76
2022/01/25 05:47:46;;;;;;;13.15;7.50;;;15.60;76.60;;;;;;1981925;29;20160;-76
2022/01/25 05:48:48;;;;;;;12.77;6.72;;;15.60;76.90;;;;;;1973912;29;20580;-76
2022/01/25 05:49:46;;;;;;;10.93;7.40;;;15.60;76.70;;;;;;1973510;29;20167;-76
2022/01/25 05:50:45;;;;;;;14.40;7.50;;;15.60;76.70;;;;;;1981914;29;20176;-75
2022/01/25 05:51:43;;;;;;;11.17;7.10;;;15.60;76.80;;;;;;1982198;29;20175;-75
2022/01/25 05:52:42;;;;;;;9.70;6.70;;;15.60;76.70;;;;;;1981946;29;20677;-75
2022/01/25 05:53:42;;;;;;;14.07;8.13;;;15.60;76.50;;;;;;1982144;29;20454;-76
2022/01/25 05:54:41;;;;;;;12.10;7.60;;;15.60;76.60;;;;;;1981769;29;20163;-75
2022/01/25 05:55:39;;;;;;;11.30;7.40;;;15.70;76.60;;;;;;1981747;29;20528;-78
2022/01/25 05:56:38;;;;;;;10.53;7.20;;;15.60;76.40;;;;;;1981852;29;20283;-75
2022/01/25 05:57:36;;;;;;;11.40;7.57;;;15.70;76.40;;;;;;1981678;29;20673;-75
2022/01/25 05:58:35;;;;;;;11.33;7.17;;;15.70;76.50;;;;;;1973573;29;20204;-78
2022/01/25 05:59:35;;;;;;;10.40;7.57;;;15.70;76.40;;;;;;1965534;29;20196;-75
2022/01/25 06:00:33;;;;;;;13.93;7.38;;;15.60;76.40;;;;;;1974016;29;20195;-77
2022/01/25 06:01:34;;;;;;;11.47;8.00;;;15.70;76.60;;;;;;1981459;29;20214;-77
2022/01/25 06:02:34;;;;;;;12.07;8.15;;;15.60;76.40;;;;;;1981544;29;20218;-77
2022/01/25 06:03:33;;;;;;;13.20;8.15;;;15.60;76.30;;;;;;1981503;29;20242;-75
2022/01/25 06:04:33;;;;;;;13.63;7.35;;;15.60;76.30;;;;;;1981698;29;20254;-76
2022/01/25 06:05:34;;;;;;;11.10;7.10;;;15.70;76.40;;;;;;1981487;29;20182;-75
2022/01/25 06:06:33;;;;;;;10.93;6.90;;;15.70;76.40;;;;;;1981690;29;20522;-76
2022/01/25 06:07:32;;;;;;;12.13;7.53;;;15.70;76.40;;;;;;1981511;29;20186;-76
2022/01/25 06:08:31;;;;;;;11.75;7.53;;;15.70;76.50;;;;;;1981564;29;20186;-76
2022/01/25 06:09:29;;;;;;;12.10;7.60;;;15.70;76.60;;;;;;1973630;29;20276;-76
2022/01/25 06:10:28;;;;;;;13.80;8.07;;;15.70;76.50;;;;;;1973710;29;20311;-76
2022/01/25 06:11:26;;;;;;;15.17;8.00;;;15.70;76.50;;;;;;1972749;29;20179;-76
2022/01/25 06:12:25;;;;;;;11.10;8.20;;;15.70;76.40;;;;;;1965778;29;20184;-75
2022/01/25 06:13:23;;;;;;;11.67;7.43;;;15.70;76.40;;;;;;1965690;29;20211;-76
2022/01/25 06:14:22;;;;;;;10.40;6.77;;;15.60;76.30;;;;;;1980437;29;20246;-77
2022/01/25 06:15:21;;;;;;;13.80;7.80;;;15.70;76.40;;;;;;1981391;29;20179;-76
2022/01/25 06:16:19;;;;;;;12.87;8.03;;;15.70;76.40;;;;;;1981268;29;20175;-76
2022/01/25 06:17:18;;;;;;;10.27;7.20;;;15.70;76.40;;;;;;1981456;29;20489;-76
2022/01/25 06:18:18;;;;;;;11.30;8.40;;;15.70;76.40;;;;;;1981406;29;20217;-76
2022/01/25 06:19:16;;;;;;;14.98;8.90;;;15.70;76.40;;;;;;1981366;29;20168;-76
2022/01/25 06:20:16;;;;;;;13.43;8.57;;;15.70;76.30;;;;;;1981242;29;20190;-76
2022/01/25 06:21:14;;;;;;;10.75;7.22;;;15.70;76.50;;;;;;1981162;29;20193;-77
2022/01/25 06:22:13;;;;;;;12.20;7.43;;;15.70;76.40;;;;;;1981008;29;20472;-77
2022/01/25 06:23:13;;;;;;;10.90;7.30;;;15.70;76.40;;;;;;1980964;29;20195;-76
2022/01/25 06:24:11;;;;;;;10.95;7.50;;;15.60;77.10;;;;;;1980923;29;20175;-76
2022/01/25 06:25:11;;;;;;;12.93;7.77;;;15.70;76.60;;;;;;1981307;29;20182;-76
2022/01/25 06:26:09;;;;;;;11.88;7.60;;;15.60;76.50;;;;;;1981207;29;20182;-76
2022/01/25 06:27:08;;;;;;;12.57;7.87;;;15.70;76.60;;;;;;1981198;29;20187;-76
2022/01/25 06:28:07;;;;;;;10.97;7.80;;;15.70;76.60;;;;;;1981330;29;20172;-76
2022/01/25 06:29:05;;;;;;;11.37;7.47;;;15.70;76.60;;;;;;1981407;29;20175;-78
2022/01/25 06:30:06;;;;;;;11.37;7.63;;;15.70;76.70;;;;;;1981313;29;20917;-77
2022/01/25 06:31:07;;;;;;;11.20;7.47;;;15.70;76.90;;;;;;1980930;29;20258;-78
2022/01/25 06:32:06;;;;;;;11.48;7.05;;;15.70;77.00;;;;;;1972836;29;20679;-76
2022/01/25 06:33:07;;;;;;;15.43;8.83;;;15.70;77.00;;;;;;1973018;29;20192;-77
2022/01/25 06:34:05;;;;;;;14.60;8.43;;;15.70;77.00;;;;;;1981313;29;20411;-77
2022/01/25 06:35:06;;;;;;;10.23;7.30;;;15.70;77.00;;;;;;1981343;29;20176;-76
2022/01/25 06:36:05;;;;;;;11.25;7.57;;;15.60;76.90;;;;;;1981068;29;20254;-76
2022/01/25 06:37:04;;;;;;;10.80;6.13;;;15.60;76.90;;;;;;1981228;29;20681;-76
2022/01/25 06:38:02;;;;;;;11.17;7.13;;;15.80;77.40;;;;;;1981270;29;20194;-77
2022/01/25 06:39:01;;;;;;;10.20;6.60;;;15.80;77.60;;;;;;1972903;29;20457;-76
2022/01/25 06:40:00;;;;;;;11.60;6.57;;;15.80;77.50;;;;;;1972949;29;20208;-76
2022/01/25 06:40:58;;;;;;;14.67;7.27;;;15.80;77.30;;;;;;1980898;29;20179;-78
2022/01/25 06:41:59;;;;;;;11.07;6.83;;;15.80;77.30;;;;;;1981355;29;20178;-76
2022/01/25 06:42:58;;;;;;;12.73;7.28;;;15.80;77.40;;;;;;1981072;29;20213;-77
2022/01/25 06:43:57;;;;;;;14.30;7.70;;;15.80;77.40;;;;;;1981172;29;20518;-76
2022/01/25 06:44:59;;;;;;;13.23;7.47;;;15.70;77.40;;;;;;1981357;29;20170;-77
2022/01/25 06:46:03;;;;;;;13.45;8.20;;;15.70;77.30;;;;;;1981075;29;20913;-74
2022/01/25 06:47:02;;;;;;;11.63;7.30;;;15.70;77.40;;;;;;1981308;29;20156;-75
2022/01/25 06:48:01;;;;;;;15.20;8.65;;;15.70;77.50;;;;;;1981185;29;20176;-77
2022/01/25 06:48:59;;;;;;;15.57;8.93;;;15.70;77.40;;;;;;1981297;29;20562;-77
2022/01/25 06:49:58;;;;;;;22.07;10.27;;;15.80;77.60;;;;;;1981515;29;20164;-76
2022/01/25 06:50:57;;;;;;;17.17;9.13;;;15.80;77.90;;;;;;1981460;29;20515;-79
2022/01/25 06:51:55;;;;;;;24.35;9.65;;;15.70;77.90;;;;;;1979369;29;20179;-77
2022/01/25 06:52:54;;;;;;;17.00;9.27;;;15.80;77.80;;;;;;1981750;29;20190;-78
2022/01/25 06:53:52;;;;;;;14.77;8.23;;;15.70;77.80;;;;;;1981529;29;20654;-78
2022/01/25 06:54:51;;;;;;;15.87;9.20;;;15.70;77.90;;;;;;1981615;29;20175;-76